»·PEaware :: N737TM KSBP-KSMX

N737TM :: KSBP-KSMX

FLIGHT INFORMATION

Flight Status: Arrived
Operator: Privately registered:
United States
More flights under this callsign
Pilot: Timothy M. (16564)
Aircraft: CESSNA 172 SKYHAWK
(C172)
More flights by this aircraft type
Origin: KSBP San Luis Co Regl
United States
Destination: KSMX Santa Maria Pub/Capt Hancock
United States
More flights between these airports :: More routes between these airports
Route: +
File this flight plan on PilotEdge
Remarks: CAT4
Altitude:
(Current/Filed)
1,500ft
Speed:
(Current/Filed)
115kts
Departed: 15-Sep-17 06:13 PM
Arrived: 15-Sep-17 06:38 PM
Distance/Time
Traveled:
22nm/0:25
Distance/Time
To Go:
Arrived

Flight Plot

Page will automatically refresh every two minutes.


Map Options




Map Legend


Flown Route
Filed Route
Departure Airport
Arrival Airport
Navaid (VOR, NDB)
Fix

Horizontal Profiles

Position Reports

Time Latitude Longitude Heading Altitude Ground
Speed
15-Sep-17 17:49 35.238489 -120.640035 304 184ft 0kts
15-Sep-17 17:50 35.238489 -120.640035 304 184ft 0kts
15-Sep-17 17:51 35.238489 -120.640035 304 184ft 0kts
15-Sep-17 17:52 35.238489 -120.640035 304 184ft 0kts
15-Sep-17 17:53 35.238489 -120.640035 304 184ft 0kts
15-Sep-17 17:54 35.238489 -120.640035 304 184ft 0kts
15-Sep-17 17:55 35.238489 -120.640035 304 184ft 0kts
15-Sep-17 17:56 35.238489 -120.640035 304 184ft 0kts
15-Sep-17 17:57 35.238489 -120.640035 304 184ft 0kts
15-Sep-17 17:58 35.238489 -120.640035 304 184ft 0kts
15-Sep-17 17:59 35.238489 -120.640035 304 184ft 0kts
15-Sep-17 18:00 35.238489 -120.640035 304 184ft 0kts
15-Sep-17 18:01 35.238489 -120.640035 304 184ft 0kts
15-Sep-17 18:02 35.238489 -120.640035 304 184ft 0kts
15-Sep-17 18:03 35.238489 -120.640035 304 184ft 0kts
15-Sep-17 18:04 35.238489 -120.640035 304 184ft 0kts
15-Sep-17 18:05 35.237820 -120.639942 127 184ft 14kts
15-Sep-17 18:06 35.235734 -120.636314 125 184ft 15kts
15-Sep-17 18:07 35.234125 -120.633978 217 184ft 0kts
15-Sep-17 18:08 35.234083 -120.634016 215 184ft 0kts
15-Sep-17 18:09 35.234083 -120.634016 215 184ft 0kts
15-Sep-17 18:10 35.234083 -120.634016 215 184ft 0kts
15-Sep-17 18:11 35.234083 -120.634016 215 184ft 0kts
15-Sep-17 18:12 35.234083 -120.634016 215 184ft 0kts
15-Sep-17 18:13 35.234083 -120.634016 215 184ft 0kts
15-Sep-17 18:14 35.234083 -120.634016 215 184ft 0kts
15-Sep-17 18:15 35.234083 -120.634016 215 184ft 0kts
15-Sep-17 18:16 35.234083 -120.634016 215 184ft 0kts
15-Sep-17 18:17 35.235121 -120.637043 305 184ft 52kts
15-Sep-17 18:18 35.244601 -120.655014 280 899ft 72kts
15-Sep-17 18:19 35.220438 -120.651641 117 1245ft 140kts
15-Sep-17 18:20 35.197383 -120.617142 163 1472ft 127kts
15-Sep-17 18:21 35.162932 -120.604993 177 1586ft 127kts
15-Sep-17 18:22 35.127090 -120.593392 168 1469ft 143kts
15-Sep-17 18:23 35.090529 -120.581308 174 1453ft 132kts
15-Sep-17 18:24 35.056519 -120.571173 178 1525ft 119kts
15-Sep-17 18:25 35.023192 -120.564524 174 1476ft 128kts
15-Sep-17 18:26 35.012225 -120.574844 333 1576ft 94kts
15-Sep-17 18:27 35.035435 -120.586918 325 1691ft 89kts
15-Sep-17 18:28 35.041446 -120.571536 173 1648ft 134kts
15-Sep-17 18:29 35.037117 -120.586594 337 1499ft 100kts
15-Sep-17 18:30 35.044658 -120.573738 203 1641ft 111kts
15-Sep-17 18:31 35.033142 -120.591725 331 1416ft 92kts
15-Sep-17 18:32 35.052164 -120.586629 97 1696ft 121kts
15-Sep-17 18:33 35.030052 -120.547711 137 1322ft 149kts
15-Sep-17 18:34 34.996424 -120.521584 164 1161ft 137kts
15-Sep-17 18:35 34.969519 -120.504385 161 1421ft 124kts
15-Sep-17 18:36 34.945938 -120.470926 130 1350ft 142kts
15-Sep-17 18:37 34.920005 -120.441698 136 1092ft 118kts
15-Sep-17 18:38 34.896851 -120.414271 144 1132ft 116kts
15-Sep-17 18:39 34.875030 -120.415884 244 1019ft 72kts
15-Sep-17 18:40 34.881622 -120.431947 308 655ft 56kts
15-Sep-17 18:41 34.891752 -120.444472 305 319ft 46kts
15-Sep-17 18:42 34.897335 -120.450025 359 265ft 7kts
15-Sep-17 18:43 34.897621 -120.450023 356 265ft 0kts
15-Sep-17 18:44 34.897621 -120.450023 356 265ft 0kts
15-Sep-17 18:45 34.898880 -120.450579 311 265ft 10kts
15-Sep-17 18:46 34.900816 -120.452058 346 265ft 8kts
15-Sep-17 18:47 34.901451 -120.452224 240 265ft 0kts
15-Sep-17 18:48 34.901451 -120.452224 240 265ft 0kts

Navigation Log

Ident Type
1. KSBP Airport
2. KSMX Airport